Time;durP1;ratioP1;P1;durP2;ratioP2;P2;SDS_P1;SDS_P2;PMS_P1;PMS_P2;Temp;Humidity;BMP_temperature;BMP_pressure;BME280_temperature;BME280_humidity;BME280_pressure;Samples;Min_cycle;Max_cycle;Signal;HPM_P1;HPM_P2
2023/07/07 00:00:12;;;;;;;9.90;7.97;;;16.50;99.90;;;;;;5101169;28;20452;-74
2023/07/07 00:02:44;;;;;;;9.13;8.03;;;16.50;99.90;;;;;;5100316;28;20432;-74
2023/07/07 00:05:12;;;;;;;10.90;9.30;;;16.40;99.90;;;;;;5101421;28;20433;-74
2023/07/07 00:07:41;;;;;;;10.03;8.60;;;16.40;99.90;;;;;;5097429;28;20440;-74
2023/07/07 00:10:11;;;;;;;9.03;8.13;;;16.40;99.90;;;;;;5099084;28;20437;-74
2023/07/07 00:12:39;;;;;;;10.73;8.83;;;16.40;99.90;;;;;;5100897;28;20505;-74
2023/07/07 00:15:09;;;;;;;10.27;9.13;;;16.30;99.90;;;;;;5098988;28;20815;-75
2023/07/07 00:17:40;;;;;;;9.60;7.93;;;16.30;99.90;;;;;;5100740;28;20513;-74
2023/07/07 00:20:10;;;;;;;9.60;8.60;;;16.30;99.90;;;;;;5097557;28;20786;-74
2023/07/07 00:22:40;;;;;;;10.60;9.10;;;16.20;99.90;;;;;;5101118;28;20470;-74
2023/07/07 00:25:11;;;;;;;9.60;8.47;;;16.20;99.90;;;;;;5099470;28;20461;-73
2023/07/07 00:27:41;;;;;;;11.00;8.70;;;16.20;99.90;;;;;;5099536;28;20468;-74
2023/07/07 00:30:13;;;;;;;10.03;8.57;;;16.20;99.90;;;;;;5106088;28;20464;-74
2023/07/07 00:32:46;;;;;;;10.87;8.60;;;16.10;99.90;;;;;;5109447;28;20428;-74
2023/07/07 00:35:18;;;;;;;9.63;8.63;;;16.10;99.90;;;;;;5107122;28;20470;-74
2023/07/07 00:37:54;;;;;;;10.40;9.30;;;16.10;99.90;;;;;;5109658;28;20451;-74
2023/07/07 00:40:36;;;;;;;8.80;7.83;;;16.10;99.90;;;;;;5113589;28;20443;-74
2023/07/07 00:43:22;;;;;;;9.90;8.90;;;16.00;99.90;;;;;;5113585;28;20451;-75
2023/07/07 00:46:18;;;;;;;10.63;8.95;;;16.00;99.90;;;;;;5113655;28;20466;-74
2023/07/07 00:49:01;;;;;;;10.47;9.13;;;16.00;99.90;;;;;;5116211;28;20199;-74
2023/07/07 00:51:41;;;;;;;9.67;8.70;;;16.00;99.90;;;;;;5114867;28;20464;-74
2023/07/07 00:54:28;;;;;;;10.80;9.77;;;15.90;99.90;;;;;;5113102;28;20412;-74
2023/07/07 00:57:08;;;;;;;11.43;8.90;;;15.90;99.90;;;;;;5113764;28;20756;-74
2023/07/07 00:59:45;;;;;;;11.63;9.47;;;15.80;99.90;;;;;;5108322;28;20446;-74
2023/07/07 01:02:24;;;;;;;16.13;14.53;;;15.80;99.90;;;;;;5101955;28;20490;-74
2023/07/07 01:05:02;;;;;;;13.47;12.07;;;15.70;99.90;;;;;;5107308;28;20435;-75
2023/07/07 01:07:38;;;;;;;15.07;13.47;;;15.70;99.90;;;;;;5105903;28;20414;-74
2023/07/07 01:10:10;;;;;;;18.50;16.60;;;15.70;99.90;;;;;;5106721;28;20460;-74
2023/07/07 01:13:00;;;;;;;15.10;13.50;;;15.70;99.90;;;;;;5106243;28;20415;-74
2023/07/07 01:16:12;;;;;;;13.23;11.00;;;15.60;99.90;;;;;;5124280;22;20467;-74
2023/07/07 01:19:40;;;;;;;14.87;13.50;;;15.60;99.90;;;;;;5016268;28;20495;-74
2023/07/07 01:23:06;;;;;;;14.70;13.30;;;15.60;99.90;;;;;;5017918;28;20433;-74
2023/07/07 01:26:29;;;;;;;14.23;12.40;;;15.60;99.90;;;;;;5015945;28;20415;-75
2023/07/07 01:32:47;;;;;;;13.27;11.47;;;15.50;99.90;;;;;;5014010;28;20427;-74
2023/07/07 01:35:30;;;;;;;21.37;18.90;;;15.40;99.90;;;;;;5015730;28;20411;-74
2023/07/07 01:38:13;;;;;;;19.77;17.67;;;15.40;99.90;;;;;;5015766;28;20432;-74
2023/07/07 01:41:04;;;;;;;15.27;13.70;;;15.40;99.90;;;;;;5016164;28;20411;-74
2023/07/07 01:43:58;;;;;;;12.30;11.10;;;15.40;99.90;;;;;;5014318;28;20431;-74
2023/07/07 01:46:32;;;;;;;12.27;11.07;;;15.40;99.90;;;;;;4999768;28;20456;-74
2023/07/07 01:49:12;;;;;;;17.23;15.43;;;15.30;99.90;;;;;;4993681;28;20449;-74
2023/07/07 01:51:49;;;;;;;16.67;14.97;;;15.30;99.90;;;;;;4994064;28;20466;-74
2023/07/07 01:54:19;;;;;;;14.27;12.60;;;15.30;99.90;;;;;;4994033;28;20798;-74
2023/07/07 01:56:48;;;;;;;12.47;11.27;;;15.20;99.90;;;;;;4992678;28;20469;-74
2023/07/07 01:59:18;;;;;;;12.33;11.20;;;15.20;99.90;;;;;;4992710;28;20468;-74
2023/07/07 02:01:46;;;;;;;11.80;10.67;;;15.20;99.90;;;;;;4992444;28;20420;-74
2023/07/07 02:04:15;;;;;;;11.33;10.23;;;15.20;99.90;;;;;;4992276;28;20473;-74
2023/07/07 02:06:44;;;;;;;12.20;11.00;;;15.20;99.90;;;;;;4992389;28;20450;-74
2023/07/07 02:09:12;;;;;;;13.50;10.73;;;15.10;99.90;;;;;;4992511;28;20819;-74
2023/07/07 02:11:40;;;;;;;11.60;10.40;;;15.10;99.90;;;;;;4992383;28;20419;-74
2023/07/07 02:14:08;;;;;;;12.00;10.90;;;15.10;99.90;;;;;;4992392;28;20415;-74
2023/07/07 02:16:36;;;;;;;12.00;10.80;;;15.10;99.90;;;;;;4992458;28;20448;-74
2023/07/07 02:19:05;;;;;;;11.73;10.53;;;15.00;99.90;;;;;;4992361;28;20526;-74
2023/07/07 02:21:35;;;;;;;12.70;11.50;;;15.00;99.90;;;;;;4992448;28;20436;-74
2023/07/07 02:24:04;;;;;;;12.43;11.23;;;15.00;99.90;;;;;;4992359;28;20445;-74
2023/07/07 02:26:32;;;;;;;11.00;9.80;;;15.00;99.90;;;;;;4992148;28;20792;-74
2023/07/07 02:29:00;;;;;;;11.37;10.13;;;15.00;99.90;;;;;;4993809;28;20811;-74
2023/07/07 02:31:28;;;;;;;11.70;10.20;;;14.90;99.90;;;;;;4992315;28;20495;-74
2023/07/07 02:33:56;;;;;;;14.50;10.73;;;14.90;99.90;;;;;;4992177;28;20459;-74
2023/07/07 02:36:25;;;;;;;12.83;11.67;;;14.90;99.90;;;;;;4992315;28;20426;-74
2023/07/07 02:38:55;;;;;;;12.43;11.23;;;14.90;99.90;;;;;;4992613;28;20781;-74
2023/07/07 02:41:23;;;;;;;11.00;9.60;;;14.90;99.90;;;;;;4997372;28;20471;-74
2023/07/07 02:43:52;;;;;;;11.50;10.40;;;14.80;99.90;;;;;;4995575;28;20530;-74
2023/07/07 02:46:22;;;;;;;12.00;10.80;;;14.80;99.90;;;;;;4995422;28;20447;-74
2023/07/07 02:48:51;;;;;;;11.50;10.40;;;14.80;99.90;;;;;;4995656;28;20860;-74
2023/07/07 02:51:19;;;;;;;11.67;10.60;;;14.80;99.90;;;;;;4995420;28;20995;-74
2023/07/07 02:53:47;;;;;;;11.73;10.63;;;14.70;99.90;;;;;;4996846;28;20407;-74
2023/07/07 02:56:17;;;;;;;13.17;11.90;;;14.70;99.90;;;;;;4996923;28;20474;-74
2023/07/07 02:58:45;;;;;;;11.47;10.37;;;14.70;99.90;;;;;;4995509;28;20488;-74
2023/07/07 03:01:16;;;;;;;11.67;10.60;;;14.70;99.90;;;;;;4995208;28;20424;-74
2023/07/07 03:03:49;;;;;;;13.93;11.67;;;14.70;99.90;;;;;;4995264;28;20857;-74
2023/07/07 03:06:19;;;;;;;12.00;10.80;;;14.70;99.90;;;;;;4996381;28;20463;-74
2023/07/07 03:08:51;;;;;;;12.13;11.00;;;14.60;99.90;;;;;;4994905;28;20455;-74
2023/07/07 03:11:23;;;;;;;14.13;11.93;;;14.60;99.90;;;;;;4996255;28;20425;-74
2023/07/07 03:13:54;;;;;;;12.33;11.17;;;14.60;99.90;;;;;;4994990;28;20769;-75
2023/07/07 03:16:30;;;;;;;11.33;10.33;;;14.60;99.90;;;;;;4995056;28;20535;-75
2023/07/07 03:19:08;;;;;;;11.90;10.80;;;14.60;99.90;;;;;;4995051;28;20551;-74
2023/07/07 03:21:46;;;;;;;12.60;11.40;;;14.50;99.90;;;;;;4995118;28;20411;-74
2023/07/07 03:24:22;;;;;;;12.40;11.20;;;14.50;99.90;;;;;;4995009;28;20452;-74
2023/07/07 03:26:52;;;;;;;12.20;11.10;;;14.50;99.90;;;;;;4994878;28;20499;-74
2023/07/07 03:29:22;;;;;;;12.83;11.70;;;14.50;99.90;;;;;;4994902;28;20531;-74
2023/07/07 03:31:52;;;;;;;12.43;11.23;;;14.50;99.90;;;;;;4994811;28;20452;-74
2023/07/07 03:34:25;;;;;;;13.30;12.00;;;14.50;99.90;;;;;;4994795;28;20444;-74
2023/07/07 03:36:54;;;;;;;12.07;10.87;;;14.50;99.90;;;;;;4994644;28;20452;-74
2023/07/07 03:39:22;;;;;;;12.63;11.33;;;14.50;99.90;;;;;;4994579;28;20507;-74
2023/07/07 03:41:52;;;;;;;12.57;11.37;;;14.40;99.90;;;;;;4994752;28;20499;-74
2023/07/07 03:44:20;;;;;;;12.57;11.47;;;14.40;99.90;;;;;;4995779;28;20440;-74
2023/07/07 03:46:49;;;;;;;13.10;11.90;;;14.50;99.90;;;;;;4994670;28;20486;-74
2023/07/07 03:49:17;;;;;;;13.67;12.40;;;14.50;99.90;;;;;;4995548;28;20460;-74
2023/07/07 03:51:45;;;;;;;13.17;11.97;;;14.40;99.90;;;;;;4994836;28;20420;-74
2023/07/07 03:54:13;;;;;;;15.30;13.70;;;14.40;99.90;;;;;;4994246;28;20486;-74
2023/07/07 03:56:42;;;;;;;13.40;12.10;;;14.40;99.90;;;;;;4994401;28;20470;-74
2023/07/07 03:59:12;;;;;;;14.10;12.80;;;14.40;99.90;;;;;;4995357;28;20461;-74
2023/07/07 04:01:40;;;;;;;14.47;13.07;;;14.40;99.90;;;;;;4997401;28;20512;-73
2023/07/07 04:04:08;;;;;;;13.80;12.40;;;14.40;99.90;;;;;;4994506;28;20458;-74
2023/07/07 04:06:37;;;;;;;13.67;12.37;;;14.40;99.90;;;;;;4996234;28;20469;-74
2023/07/07 04:09:06;;;;;;;13.80;12.50;;;14.40;99.90;;;;;;4997361;28;20511;-74
2023/07/07 04:11:34;;;;;;;14.20;12.80;;;14.40;99.90;;;;;;4993944;28;20522;-74
2023/07/07 04:14:02;;;;;;;13.50;12.10;;;14.40;99.90;;;;;;4995184;28;20510;-73
2023/07/07 04:16:31;;;;;;;13.53;12.23;;;14.40;99.90;;;;;;4995155;28;20547;-74
2023/07/07 04:18:59;;;;;;;14.53;13.13;;;14.40;99.90;;;;;;4993720;28;20990;-74
2023/07/07 04:21:29;;;;;;;14.70;13.30;;;14.40;99.90;;;;;;4993828;28;20445;-74
2023/07/07 04:24:00;;;;;;;14.90;13.60;;;14.40;99.90;;;;;;4994958;28;20508;-73
2023/07/07 04:26:31;;;;;;;15.23;13.93;;;14.40;99.90;;;;;;4993616;28;20536;-74
2023/07/07 04:29:01;;;;;;;15.17;13.60;;;14.40;99.90;;;;;;4994779;28;20449;-74
2023/07/07 04:31:32;;;;;;;14.60;13.10;;;14.40;99.90;;;;;;4996812;28;20435;-74
2023/07/07 04:34:01;;;;;;;15.93;14.37;;;14.40;99.90;;;;;;4995955;28;20402;-73
2023/07/07 04:36:30;;;;;;;14.30;13.00;;;14.50;99.90;;;;;;4995359;28;20799;-74
2023/07/07 04:38:59;;;;;;;15.50;14.00;;;14.50;99.90;;;;;;4995477;28;21009;-74
2023/07/07 04:41:27;;;;;;;15.53;14.23;;;14.50;99.90;;;;;;4994685;28;20437;-73
2023/07/07 04:43:57;;;;;;;14.80;13.50;;;14.50;99.90;;;;;;4993331;28;20449;-74
2023/07/07 04:46:28;;;;;;;13.50;12.40;;;14.50;99.90;;;;;;4994636;28;20541;-73
2023/07/07 04:48:58;;;;;;;14.50;13.20;;;14.50;99.90;;;;;;4994635;28;20973;-73
2023/07/07 04:51:26;;;;;;;14.40;13.10;;;14.50;99.90;;;;;;4994764;28;20469;-73
2023/07/07 04:53:54;;;;;;;14.00;12.60;;;14.60;99.90;;;;;;4994791;28;20418;-73
2023/07/07 04:56:23;;;;;;;13.90;12.70;;;14.60;99.90;;;;;;4994513;28;20434;-73
2023/07/07 04:58:52;;;;;;;13.50;12.20;;;14.60;99.90;;;;;;4993255;28;21055;-73
2023/07/07 05:01:28;;;;;;;14.03;12.60;;;14.60;99.90;;;;;;4994542;28;20419;-73
2023/07/07 05:03:59;;;;;;;13.07;11.77;;;14.60;99.90;;;;;;4992964;28;20491;-73
2023/07/07 05:06:30;;;;;;;12.90;11.60;;;14.70;99.90;;;;;;4994274;28;20464;-74
2023/07/07 05:08:58;;;;;;;13.80;12.40;;;14.70;99.90;;;;;;4994274;28;20486;-73
2023/07/07 05:11:28;;;;;;;18.17;16.27;;;14.70;99.90;;;;;;4994859;28;20419;-75
2023/07/07 05:13:56;;;;;;;24.93;15.07;;;14.70;99.90;;;;;;4992936;28;21011;-74
2023/07/07 05:16:27;;;;;;;16.73;15.23;;;14.80;99.90;;;;;;4993166;28;20801;-75
2023/07/07 05:18:56;;;;;;;15.10;13.60;;;14.80;99.90;;;;;;4992792;28;20499;-75
2023/07/07 05:21:26;;;;;;;14.77;13.17;;;14.80;99.90;;;;;;4992737;28;20852;-75
2023/07/07 05:23:54;;;;;;;14.40;12.97;;;14.90;99.90;;;;;;4994869;28;20494;-74
2023/07/07 05:26:27;;;;;;;14.43;13.03;;;14.90;99.90;;;;;;4994218;28;20945;-75
2023/07/07 05:28:57;;;;;;;15.63;14.13;;;14.90;99.90;;;;;;4994247;28;20454;-75
2023/07/07 05:31:25;;;;;;;13.37;12.13;;;15.00;99.90;;;;;;4994451;28;20436;-75
2023/07/07 05:33:53;;;;;;;13.47;12.27;;;15.00;99.90;;;;;;4993969;28;20525;-75
2023/07/07 05:36:23;;;;;;;14.00;12.80;;;15.10;99.90;;;;;;4993915;28;20448;-75
2023/07/07 05:38:51;;;;;;;14.90;13.60;;;15.20;99.90;;;;;;4992652;28;20494;-75
2023/07/07 05:41:19;;;;;;;14.27;13.07;;;15.20;99.90;;;;;;4992639;28;20420;-75
2023/07/07 05:43:47;;;;;;;12.07;10.87;;;15.30;99.90;;;;;;4992596;28;20445;-75
2023/07/07 05:46:16;;;;;;;14.67;13.10;;;15.40;99.90;;;;;;4993942;28;20477;-74
2023/07/07 05:48:46;;;;;;;13.70;12.50;;;15.60;99.90;;;;;;4993921;28;20481;-73
2023/07/07 05:51:16;;;;;;;13.77;12.20;;;15.70;99.90;;;;;;4992481;28;21010;-74
2023/07/07 05:53:45;;;;;;;13.93;12.63;;;15.90;99.90;;;;;;4993382;28;21053;-74
2023/07/07 05:56:18;;;;;;;14.37;11.63;;;16.20;99.90;;;;;;4993673;28;20479;-74
2023/07/07 05:58:46;;;;;;;11.53;10.50;;;16.30;99.90;;;;;;4993882;28;20460;-74
2023/07/07 06:01:14;;;;;;;13.07;11.73;;;16.50;99.90;;;;;;4993693;28;20844;-73
2023/07/07 06:03:43;;;;;;;10.23;9.03;;;16.70;99.90;;;;;;4992563;28;20958;-73
2023/07/07 06:06:12;;;;;;;10.90;9.63;;;17.00;99.90;;;;;;4993726;28;20475;-73
2023/07/07 06:08:41;;;;;;;11.40;10.17;;;17.20;99.90;;;;;;4993826;28;20453;-73
2023/07/07 06:11:10;;;;;;;10.93;9.43;;;17.50;99.90;;;;;;4992383;28;20451;-74
2023/07/07 06:13:39;;;;;;;11.80;10.60;;;17.70;99.90;;;;;;4993816;28;20444;-74
2023/07/07 06:16:07;;;;;;;10.70;8.53;;;17.90;99.90;;;;;;4997209;28;20571;-74
2023/07/07 06:18:36;;;;;;;10.73;8.70;;;18.20;99.90;;;;;;4996148;28;20535;-75
2023/07/07 06:21:04;;;;;;;10.13;8.57;;;18.40;99.90;;;;;;4997418;28;20859;-75
2023/07/07 06:23:33;;;;;;;8.77;7.63;;;18.60;99.90;;;;;;4996379;28;20480;-74
2023/07/07 06:26:02;;;;;;;11.07;8.30;;;18.80;99.90;;;;;;4997284;28;20954;-74
2023/07/07 06:28:32;;;;;;;9.03;8.17;;;19.00;99.90;;;;;;4997411;28;20479;-74
2023/07/07 06:31:00;;;;;;;10.57;7.70;;;19.20;99.90;;;;;;4997277;28;20439;-74
2023/07/07 06:33:29;;;;;;;12.43;8.17;;;19.40;99.90;;;;;;4995938;28;20444;-74
2023/07/07 06:35:57;;;;;;;9.47;7.93;;;19.50;99.90;;;;;;4997121;28;21068;-74
2023/07/07 06:38:25;;;;;;;9.50;7.90;;;19.70;99.90;;;;;;4997598;28;20452;-74
2023/07/07 06:40:53;;;;;;;9.47;7.40;;;19.90;99.90;;;;;;4997203;28;20443;-74
2023/07/07 06:43:22;;;;;;;8.57;7.17;;;20.10;99.90;;;;;;4997154;28;20716;-74
2023/07/07 06:45:54;;;;;;;8.27;6.93;;;20.30;99.90;;;;;;4997567;28;20536;-74
2023/07/07 06:48:23;;;;;;;10.30;7.17;;;20.50;99.90;;;;;;4995528;28;20567;-74
2023/07/07 06:50:51;;;;;;;8.80;6.73;;;20.60;99.90;;;;;;4996852;28;20437;-75
2023/07/07 06:53:19;;;;;;;9.73;6.43;;;20.80;99.90;;;;;;4996794;28;20535;-74
2023/07/07 06:55:47;;;;;;;7.50;6.57;;;20.90;99.90;;;;;;4995591;28;20451;-74
2023/07/07 06:58:15;;;;;;;11.40;7.10;;;21.10;99.90;;;;;;4995525;28;20547;-74
2023/07/07 07:00:44;;;;;;;8.07;7.13;;;21.30;99.90;;;;;;4995990;28;20448;-74
2023/07/07 07:03:14;;;;;;;11.53;6.80;;;21.40;99.90;;;;;;4997106;28;20444;-75
2023/07/07 07:05:42;;;;;;;7.17;5.90;;;21.50;99.90;;;;;;4995351;28;20445;-75
2023/07/07 07:08:11;;;;;;;7.87;6.83;;;21.70;99.90;;;;;;4995193;28;20503;-74
2023/07/07 07:10:39;;;;;;;8.57;6.07;;;21.80;99.90;;;;;;4996807;28;20491;-74
2023/07/07 07:13:08;;;;;;;14.20;5.97;;;22.00;99.90;;;;;;4996816;28;20845;-74
2023/07/07 07:15:36;;;;;;;7.50;5.60;;;22.10;99.90;;;;;;4995069;28;20449;-75
2023/07/07 07:18:04;;;;;;;7.80;5.47;;;22.20;99.90;;;;;;4996686;28;20840;-74
2023/07/07 07:20:34;;;;;;;9.20;5.53;;;22.40;99.90;;;;;;4997867;28;20443;-74
2023/07/07 07:23:02;;;;;;;7.70;5.70;;;22.50;99.90;;;;;;4997056;28;20452;-75
2023/07/07 07:25:30;;;;;;;9.00;4.90;;;22.50;99.90;;;;;;4995321;28;20962;-74
2023/07/07 07:27:59;;;;;;;8.20;5.17;;;22.60;99.90;;;;;;4995470;28;20477;-74
2023/07/07 07:30:27;;;;;;;9.03;4.87;;;22.60;99.90;;;;;;4995014;28;20496;-75
2023/07/07 07:32:55;;;;;;;10.33;6.47;;;22.70;99.90;;;;;;4996182;28;20476;-74
2023/07/07 07:35:23;;;;;;;7.80;5.00;;;22.80;99.90;;;;;;4996172;28;21000;-74
2023/07/07 07:37:52;;;;;;;6.47;4.37;;;23.00;99.90;;;;;;4996536;28;20445;-76
2023/07/07 07:40:23;;;;;;;6.53;4.40;;;23.10;99.90;;;;;;4996278;28;20463;-74
2023/07/07 07:42:51;;;;;;;8.47;4.27;;;23.20;99.90;;;;;;4994889;28;20483;-75
2023/07/07 07:45:22;;;;;;;6.77;4.40;;;23.30;99.90;;;;;;5011164;28;20455;-74
2023/07/07 07:47:51;;;;;;;8.53;4.10;;;23.40;99.90;;;;;;4996887;28;20452;-75
2023/07/07 07:50:21;;;;;;;5.20;3.57;;;23.40;99.90;;;;;;4996096;28;20467;-75
2023/07/07 07:52:50;;;;;;;7.03;4.30;;;23.50;99.90;;;;;;4996084;28;20444;-74
2023/07/07 07:55:19;;;;;;;9.47;4.13;;;23.60;99.90;;;;;;4995753;28;20433;-74
2023/07/07 07:57:48;;;;;;;4.90;3.10;;;23.70;99.90;;;;;;4995791;28;20472;-75
2023/07/07 08:00:17;;;;;;;8.83;3.73;;;23.70;99.90;;;;;;4994775;28;20460;-75
2023/07/07 08:02:45;;;;;;;7.60;3.37;;;23.80;99.90;;;;;;4995797;28;20938;-74
2023/07/07 08:05:13;;;;;;;7.10;3.07;;;23.80;99.90;;;;;;4995530;28;20429;-75
2023/07/07 08:07:41;;;;;;;5.63;2.80;;;23.90;99.90;;;;;;4995819;28;20469;-75
2023/07/07 08:10:10;;;;;;;6.90;3.07;;;24.00;99.90;;;;;;4995563;28;21068;-75
2023/07/07 08:12:40;;;;;;;5.60;2.50;;;24.00;99.90;;;;;;4994497;28;21044;-75
2023/07/07 08:15:11;;;;;;;8.13;2.73;;;24.00;99.90;;;;;;4995602;28;20487;-75
2023/07/07 08:17:40;;;;;;;5.03;2.83;;;24.00;99.90;;;;;;4995918;28;20437;-75
2023/07/07 08:20:16;;;;;;;5.70;3.20;;;24.10;99.90;;;;;;4995238;28;20452;-76
2023/07/07 08:22:45;;;;;;;6.47;3.10;;;24.10;99.90;;;;;;4995997;28;20953;-74
2023/07/07 08:25:13;;;;;;;4.63;2.73;;;24.20;99.90;;;;;;4995507;28;20436;-75
2023/07/07 08:27:42;;;;;;;6.10;2.53;;;24.20;99.90;;;;;;4995229;28;20563;-75
2023/07/07 08:30:30;;;;;;;5.67;2.40;;;24.30;99.90;;;;;;4993956;28;20441;-75
2023/07/07 08:32:59;;;;;;;5.20;2.77;;;24.30;99.50;;;;;;4995711;28;20918;-75
2023/07/07 08:35:27;;;;;;;5.50;2.80;;;24.30;99.10;;;;;;4994977;28;20507;-76
2023/07/07 08:37:55;;;;;;;7.63;2.80;;;24.30;98.70;;;;;;4995465;28;20934;-75
2023/07/07 08:40:30;;;;;;;7.10;2.40;;;24.40;98.50;;;;;;4994981;28;20892;-75
2023/07/07 08:42:59;;;;;;;5.30;2.73;;;24.40;98.30;;;;;;4995586;28;20426;-74
2023/07/07 08:45:28;;;;;;;5.43;2.30;;;24.50;98.30;;;;;;4993664;28;20483;-75
2023/07/07 08:48:06;;;;;;;6.60;2.60;;;24.50;98.20;;;;;;4993716;28;20491;-75
2023/07/07 08:50:41;;;;;;;5.07;2.00;;;24.60;97.70;;;;;;4993488;28;20437;-75
2023/07/07 08:53:34;;;;;;;6.77;3.23;;;24.70;97.50;;;;;;4995149;28;20503;-74
2023/07/07 08:56:10;;;;;;;6.00;3.03;;;24.70;97.50;;;;;;4995091;28;20520;-74
2023/07/07 08:58:49;;;;;;;6.50;2.60;;;24.80;97.50;;;;;;4994803;28;20460;-74
2023/07/07 09:01:30;;;;;;;5.00;2.70;;;24.80;96.90;;;;;;4994841;28;20420;-75
2023/07/07 09:04:08;;;;;;;4.60;2.63;;;24.90;96.80;;;;;;4994403;28;20805;-75
2023/07/07 09:06:49;;;;;;;5.87;2.70;;;24.90;96.50;;;;;;4994637;28;20443;-74
2023/07/07 09:09:32;;;;;;;6.17;2.87;;;25.00;96.60;;;;;;4994478;28;20882;-75
2023/07/07 09:12:14;;;;;;;6.80;2.87;;;25.10;96.30;;;;;;4994555;28;20431;-74
2023/07/07 09:14:46;;;;;;;6.70;3.07;;;25.10;96.30;;;;;;4994702;28;20425;-75
2023/07/07 09:17:24;;;;;;;4.83;2.60;;;25.10;96.00;;;;;;4994453;28;20828;-74
2023/07/07 09:19:54;;;;;;;6.00;2.90;;;25.20;95.80;;;;;;4994633;28;20514;-77
2023/07/07 09:22:28;;;;;;;4.77;2.13;;;25.20;95.70;;;;;;4993091;28;20539;-77
2023/07/07 09:25:02;;;;;;;6.73;2.90;;;25.30;95.60;;;;;;4995480;28;20429;-76
2023/07/07 09:27:34;;;;;;;5.47;3.27;;;25.30;95.40;;;;;;4993705;28;20437;-75
2023/07/07 09:30:12;;;;;;;4.90;2.50;;;25.30;95.20;;;;;;4995395;28;20512;-75
2023/07/07 09:32:40;;;;;;;4.90;2.50;;;25.30;95.00;;;;;;4993831;28;20444;-76
2023/07/07 09:35:13;;;;;;;5.40;2.57;;;25.30;94.80;;;;;;4995839;28;20845;-76
2023/07/07 09:37:51;;;;;;;4.83;2.97;;;25.40;94.80;;;;;;4995251;28;20510;-76
2023/07/07 09:40:27;;;;;;;6.57;3.03;;;25.40;94.70;;;;;;4994591;28;20487;-76
2023/07/07 09:43:03;;;;;;;5.53;2.60;;;25.40;94.50;;;;;;4993658;28;20452;-77
2023/07/07 09:45:39;;;;;;;5.50;2.50;;;25.40;94.40;;;;;;4994024;28;20547;-76
2023/07/07 09:48:22;;;;;;;5.90;2.97;;;25.40;94.20;;;;;;4995259;28;20491;-74
2023/07/07 09:50:59;;;;;;;5.00;2.60;;;25.50;94.40;;;;;;4998883;28;20491;-75
2023/07/07 09:53:31;;;;;;;8.00;3.00;;;25.50;94.50;;;;;;4999272;28;20427;-75
2023/07/07 09:56:19;;;;;;;6.20;3.47;;;25.60;94.70;;;;;;4998876;28;20960;-75
2023/07/07 09:58:53;;;;;;;6.80;3.40;;;25.60;94.50;;;;;;4999270;28;20472;-75
2023/07/07 10:01:27;;;;;;;5.47;3.27;;;25.70;94.50;;;;;;4999193;28;20895;-75
2023/07/07 10:03:56;;;;;;;7.20;3.00;;;25.80;94.30;;;;;;4999233;28;20775;-75
2023/07/07 10:06:31;;;;;;;6.17;2.93;;;25.80;93.80;;;;;;4998779;28;20436;-76
2023/07/07 10:08:59;;;;;;;5.53;2.77;;;25.90;93.30;;;;;;4998368;28;20486;-77
2023/07/07 10:11:31;;;;;;;6.13;3.20;;;25.80;93.10;;;;;;4998867;28;20432;-76
2023/07/07 10:14:06;;;;;;;6.03;2.97;;;25.90;92.90;;;;;;4998556;28;20444;-76
2023/07/07 10:16:46;;;;;;;8.37;3.60;;;25.80;92.40;;;;;;4998312;28;21036;-76
2023/07/07 10:19:16;;;;;;;6.70;2.80;;;25.90;92.30;;;;;;4998845;28;20483;-77
2023/07/07 10:21:44;;;;;;;5.90;3.43;;;25.90;92.20;;;;;;4998440;28;20471;-76
2023/07/07 10:24:13;;;;;;;9.27;3.20;;;25.90;92.00;;;;;;4997154;28;20858;-76
2023/07/07 10:26:45;;;;;;;5.37;3.00;;;25.90;92.30;;;;;;4998446;28;20433;-75
2023/07/07 10:29:18;;;;;;;6.07;3.03;;;25.90;92.70;;;;;;4998612;28;20506;-76
2023/07/07 10:31:50;;;;;;;5.10;3.00;;;25.90;92.20;;;;;;4998553;28;20449;-76
2023/07/07 10:34:26;;;;;;;6.47;3.30;;;26.00;91.80;;;;;;4997991;28;20421;-75
2023/07/07 10:36:55;;;;;;;7.90;2.80;;;26.00;91.80;;;;;;4998301;28;20883;-76
2023/07/07 10:39:25;;;;;;;5.77;3.17;;;26.00;91.50;;;;;;4997885;28;20460;-75
2023/07/07 10:41:53;;;;;;;4.87;3.00;;;26.00;91.40;;;;;;4997956;28;20938;-75
2023/07/07 10:44:24;;;;;;;5.33;2.80;;;26.00;91.30;;;;;;4998054;28;20930;-75
2023/07/07 10:46:54;;;;;;;6.40;3.17;;;26.00;91.10;;;;;;4998332;28;20421;-76
2023/07/07 10:49:26;;;;;;;6.27;3.40;;;26.00;91.20;;;;;;4997608;28;21021;-75
2023/07/07 10:52:09;;;;;;;6.43;3.00;;;26.10;91.20;;;;;;4995544;28;20444;-74
2023/07/07 10:54:48;;;;;;;5.30;3.20;;;26.10;90.60;;;;;;4997020;28;20429;-75
2023/07/07 10:57:27;;;;;;;7.27;5.20;;;26.20;90.50;;;;;;4996649;28;20898;-75
2023/07/07 11:00:06;;;;;;;6.03;2.97;;;26.20;90.80;;;;;;4995291;28;20800;-76
2023/07/07 11:03:02;;;;;;;6.00;3.67;;;26.30;90.90;;;;;;4996940;28;20786;-75
2023/07/07 11:05:44;;;;;;;5.33;3.20;;;26.30;90.40;;;;;;4996770;28;20458;-76
2023/07/07 11:08:39;;;;;;;5.40;3.13;;;26.40;90.50;;;;;;4996571;28;20467;-75
2023/07/07 11:11:20;;;;;;;5.10;3.43;;;26.40;90.40;;;;;;4996500;28;20429;-76
2023/07/07 11:14:09;;;;;;;6.33;3.10;;;26.40;90.50;;;;;;4996747;28;20913;-76
2023/07/07 11:16:47;;;;;;;7.03;3.33;;;26.40;90.70;;;;;;4996398;28;20507;-76
2023/07/07 11:19:27;;;;;;;5.67;3.13;;;26.40;90.70;;;;;;4996601;28;20937;-76
2023/07/07 11:22:03;;;;;;;5.40;3.50;;;26.40;90.80;;;;;;4996275;28;20782;-75
2023/07/07 11:24:37;;;;;;;5.80;3.27;;;26.50;90.80;;;;;;4995298;28;20433;-75
2023/07/07 11:27:46;;;;;;;5.53;3.13;;;26.50;90.50;;;;;;4996235;28;20429;-76
2023/07/07 11:30:23;;;;;;;9.10;3.70;;;26.50;90.40;;;;;;4955226;29;20517;-76
2023/07/07 11:33:05;;;;;;;7.17;3.13;;;26.50;90.40;;;;;;4992830;28;20551;-77
2023/07/07 11:35:48;;;;;;;7.23;3.50;;;26.50;90.30;;;;;;4998606;28;20492;-76
2023/07/07 11:38:45;;;;;;;8.70;3.90;;;26.50;90.30;;;;;;4999213;28;20425;-76
2023/07/07 11:41:20;;;;;;;5.80;3.20;;;26.50;90.20;;;;;;4997373;28;20867;-76
2023/07/07 11:44:12;;;;;;;5.27;2.77;;;26.50;90.20;;;;;;4997768;28;20420;-76
2023/07/07 11:47:04;;;;;;;5.97;2.90;;;26.60;90.20;;;;;;4997425;28;20457;-75
2023/07/07 11:49:46;;;;;;;6.00;3.10;;;26.60;90.00;;;;;;4996154;28;20478;-75
2023/07/07 11:52:30;;;;;;;5.57;3.00;;;26.70;90.20;;;;;;4996168;28;20424;-76
2023/07/07 11:55:17;;;;;;;7.53;3.03;;;26.70;89.80;;;;;;4995741;28;20512;-78
2023/07/07 11:57:57;;;;;;;6.20;4.43;;;26.70;89.80;;;;;;4996213;28;20855;-77
2023/07/07 12:00:42;;;;;;;8.40;5.47;;;26.70;89.80;;;;;;4994764;28;20487;-78
2023/07/07 12:03:47;;;;;;;6.27;3.70;;;26.70;89.50;;;;;;4994456;28;20507;-76
2023/07/07 12:06:22;;;;;;;6.17;3.33;;;26.70;89.20;;;;;;4991481;28;20468;-77
2023/07/07 12:09:04;;;;;;;7.23;3.20;;;26.70;89.10;;;;;;4994334;28;20470;-77
2023/07/07 12:11:37;;;;;;;5.37;2.93;;;26.80;89.40;;;;;;4995306;28;20467;-77
2023/07/07 12:14:30;;;;;;;6.57;3.83;;;26.80;88.90;;;;;;4994147;28;20506;-77
2023/07/07 12:17:00;;;;;;;5.90;3.87;;;26.90;89.00;;;;;;4996236;28;20519;-78
2023/07/07 12:19:34;;;;;;;7.03;3.53;;;26.90;88.90;;;;;;4996391;28;20865;-78
2023/07/07 12:22:09;;;;;;;5.30;3.33;;;26.90;88.40;;;;;;4993951;28;20958;-77
2023/07/07 12:24:45;;;;;;;5.93;2.90;;;27.00;88.10;;;;;;4995186;28;20461;-76
2023/07/07 12:27:18;;;;;;;4.93;2.90;;;26.90;88.20;;;;;;4995121;28;20425;-77
2023/07/07 12:29:49;;;;;;;6.13;3.27;;;27.00;87.80;;;;;;4995009;28;20527;-76
2023/07/07 12:32:19;;;;;;;5.30;3.03;;;26.90;87.30;;;;;;4995510;28;20870;-77
2023/07/07 12:35:04;;;;;;;6.07;3.10;;;27.00;87.40;;;;;;4995039;28;20429;-77
2023/07/07 12:37:34;;;;;;;6.90;3.57;;;27.00;87.40;;;;;;4994350;28;20448;-77
2023/07/07 12:40:13;;;;;;;5.33;2.97;;;26.90;87.10;;;;;;4994972;28;20889;-77
2023/07/07 12:42:44;;;;;;;5.30;3.33;;;26.90;86.90;;;;;;4994942;28;20436;-78
2023/07/07 12:45:25;;;;;;;6.20;3.03;;;27.00;87.10;;;;;;4995404;28;20432;-77
2023/07/07 12:47:56;;;;;;;5.87;3.50;;;27.00;86.60;;;;;;4996390;28;20424;-76
2023/07/07 12:50:28;;;;;;;5.80;2.93;;;27.00;86.40;;;;;;4998335;28;20473;-79
2023/07/07 12:53:03;;;;;;;5.67;3.00;;;27.00;86.30;;;;;;4996772;28;20428;-79
2023/07/07 12:55:38;;;;;;;5.97;3.40;;;27.10;86.40;;;;;;4995126;28;20444;-77
2023/07/07 12:58:40;;;;;;;4.90;2.93;;;27.10;86.40;;;;;;4993807;28;20439;-77
2023/07/07 13:01:26;;;;;;;5.93;3.27;;;27.20;85.70;;;;;;4994462;28;20432;-76
2023/07/07 13:04:09;;;;;;;5.50;2.87;;;27.20;86.50;;;;;;4994653;28;20456;-78
2023/07/07 13:06:40;;;;;;;6.40;3.70;;;27.20;87.00;;;;;;4993487;28;20816;-78
2023/07/07 13:09:20;;;;;;;5.63;3.30;;;27.30;86.40;;;;;;4994767;28;20456;-78
2023/07/07 13:11:52;;;;;;;6.10;3.47;;;27.30;86.10;;;;;;4993895;28;20466;-78
2023/07/07 13:14:41;;;;;;;5.00;3.00;;;27.40;86.00;;;;;;4993332;28;20445;-78